createdAt,value
2022-12-11T00:01:07.786Z,55.30
2022-12-11T00:03:44.494Z,55.90
2022-12-11T00:06:14.377Z,77.60
2022-12-11T00:08:42.888Z,50.50
2022-12-11T00:11:12.611Z,56.90
2022-12-11T00:13:42.716Z,55.40
2022-12-11T00:16:11.531Z,48.20
2022-12-11T00:18:40.109Z,65.50
2022-12-11T00:21:11.189Z,72.40
2022-12-11T00:23:39.511Z,45.80
2022-12-11T00:26:09.241Z,77.60
2022-12-11T00:28:37.429Z,80.90
2022-12-11T00:31:06.929Z,60.90
2022-12-11T00:33:35.213Z,74.90
2022-12-11T00:36:03.953Z,62.30
2022-12-11T00:38:34.344Z,73.00
2022-12-11T00:41:02.561Z,44.30
2022-12-11T00:43:31.195Z,59.70
2022-12-11T00:45:59.522Z,56.80
2022-12-11T00:48:27.819Z,76.20
2022-12-11T00:50:56.186Z,59.60
2022-12-11T00:53:24.441Z,41.10
2022-12-11T00:55:52.687Z,52.00
2022-12-11T00:58:20.945Z,53.70
2022-12-11T01:00:49.735Z,69.40
2022-12-11T01:03:18.070Z,51.60
2022-12-11T01:05:52.923Z,80.10
2022-12-11T01:08:21.830Z,64.60
2022-12-11T01:10:50.252Z,34.40
2022-12-11T01:13:18.591Z,72.70
2022-12-11T01:15:46.798Z,66.90
2022-12-11T01:18:15.304Z,68.90
2022-12-11T01:20:44.112Z,76.90
2022-12-11T01:23:13.432Z,73.60
2022-12-11T01:25:45.266Z,71.20
2022-12-11T01:28:14.047Z,54.80
2022-12-11T01:30:43.305Z,70.30
2022-12-11T01:33:11.692Z,45.00
2022-12-11T01:35:40.786Z,76.70
2022-12-11T01:38:10.155Z,55.70
2022-12-11T01:40:38.450Z,50.70
2022-12-11T01:43:08.708Z,71.70
2022-12-11T01:45:40.302Z,66.80
2022-12-11T01:48:11.596Z,47.80
2022-12-11T01:50:44.344Z,32.40
2022-12-11T01:53:15.319Z,50.60
2022-12-11T01:55:45.547Z,69.50
2022-12-11T01:58:14.163Z,48.50
2022-12-11T02:00:42.635Z,27.20
2022-12-11T02:03:10.968Z,57.10
2022-12-11T02:05:39.527Z,57.90
2022-12-11T02:08:09.195Z,55.30
2022-12-11T02:10:48.203Z,42.40
2022-12-11T02:13:20.343Z,74.40
2022-12-11T02:15:51.220Z,64.10
2022-12-11T02:18:27.049Z,69.00
2022-12-11T02:21:00.785Z,56.40
2022-12-11T02:23:46.978Z,49.50
2022-12-11T02:26:29.254Z,55.70
2022-12-11T02:28:58.991Z,60.30
2022-12-11T02:31:32.485Z,55.80
2022-12-11T02:34:04.270Z,47.20
2022-12-11T02:36:35.146Z,60.10
2022-12-11T02:39:04.862Z,69.00
2022-12-11T02:41:33.730Z,52.40
2022-12-11T02:44:03.619Z,67.70
2022-12-11T02:46:33.106Z,66.50
2022-12-11T02:49:03.939Z,43.00
2022-12-11T02:51:34.622Z,46.80
2022-12-11T02:54:06.552Z,33.10
2022-12-11T02:56:38.594Z,46.70
2022-12-11T02:59:10.490Z,61.70
2022-12-11T03:01:38.835Z,52.60
2022-12-11T03:04:07.321Z,47.20
2022-12-11T03:06:38.183Z,57.60
2022-12-11T03:09:07.703Z,30.00
2022-12-11T03:11:35.978Z,63.10
2022-12-11T03:14:04.416Z,62.10
2022-12-11T03:16:35.820Z,51.60
2022-12-11T03:19:12.587Z,58.00
2022-12-11T03:21:45.637Z,56.40
2022-12-11T03:24:18.001Z,41.10
2022-12-11T03:26:56.009Z,44.10
2022-12-11T03:29:28.189Z,59.50
2022-12-11T03:31:59.230Z,55.40
2022-12-11T03:34:31.413Z,40.20
2022-12-11T03:37:00.659Z,57.10
2022-12-11T03:39:32.451Z,42.10
2022-12-11T03:42:02.068Z,45.30
2022-12-11T03:44:30.585Z,39.20
2022-12-11T03:47:01.422Z,21.00
2022-12-11T03:49:32.158Z,43.00
2022-12-11T03:52:01.013Z,47.80
2022-12-11T03:54:30.043Z,40.80
2022-12-11T03:56:59.571Z,38.40
2022-12-11T03:59:27.836Z,52.00
2022-12-11T04:01:56.288Z,31.00
2022-12-11T04:04:24.629Z,11.30
2022-12-11T04:06:53.031Z,47.10
2022-12-11T04:09:21.549Z,41.80
2022-12-11T04:11:49.802Z,48.60
2022-12-11T04:14:36.474Z,42.60
2022-12-11T04:17:04.786Z,61.40
2022-12-11T04:19:51.291Z,50.00
2022-12-11T04:22:38.246Z,20.40
2022-12-11T04:25:08.918Z,60.90
2022-12-11T04:27:52.312Z,47.80
2022-12-11T04:30:22.262Z,31.40
2022-12-11T04:32:50.970Z,58.30
2022-12-11T04:35:19.842Z,51.70
2022-12-11T04:37:48.440Z,40.90
2022-12-11T04:40:18.562Z,39.00
2022-12-11T04:42:46.945Z,47.20
2022-12-11T04:45:15.196Z,33.20
2022-12-11T04:47:43.874Z,51.70
2022-12-11T04:50:14.058Z,60.80
2022-12-11T04:52:42.425Z,47.70
2022-12-11T04:55:11.763Z,49.40
2022-12-11T04:57:40.272Z,60.50
2022-12-11T05:00:12.307Z,33.70
2022-12-11T05:02:42.313Z,42.50
2022-12-11T05:05:11.960Z,54.40
2022-12-11T05:07:41.250Z,54.40
2022-12-11T05:10:10.894Z,39.90
2022-12-11T05:12:39.291Z,46.10
2022-12-11T05:15:09.779Z,44.40
2022-12-11T05:17:38.645Z,37.60
2022-12-11T05:20:09.876Z,63.90
2022-12-11T05:22:38.874Z,42.10
2022-12-11T05:25:09.212Z,37.40
2022-12-11T05:27:37.775Z,52.80
2022-12-11T05:30:09.527Z,50.10
2022-12-11T05:32:37.856Z,36.10
2022-12-11T05:35:07.509Z,31.30
2022-12-11T05:37:35.776Z,39.10
2022-12-11T05:40:05.969Z,33.60
2022-12-11T05:42:34.522Z,31.20
2022-12-11T05:45:02.885Z,33.40
2022-12-11T05:47:31.997Z,40.30
2022-12-11T05:50:00.177Z,38.20
2022-12-11T05:52:28.488Z,24.10
2022-12-11T05:54:56.740Z,36.30
2022-12-11T05:57:24.997Z,37.80
2022-12-11T05:59:53.206Z,34.00
2022-12-11T06:02:21.575Z,36.50
2022-12-11T06:04:50.083Z,27.60
2022-12-11T06:07:18.525Z,28.10
2022-12-11T06:09:47.980Z,23.50
2022-12-11T06:12:16.325Z,31.50
2022-12-11T06:14:44.671Z,31.10
2022-12-11T06:17:12.908Z,29.70
2022-12-11T06:19:41.284Z,26.30
2022-12-11T06:22:09.657Z,15.50
2022-12-11T06:24:38.109Z,31.10
2022-12-11T06:27:06.491Z,24.50
2022-12-11T06:29:35.196Z,26.50
2022-12-11T06:32:03.967Z,24.00
2022-12-11T06:34:32.382Z,11.80
2022-12-11T06:37:00.859Z,24.70
2022-12-11T06:39:29.192Z,29.50
2022-12-11T06:41:57.429Z,29.00
2022-12-11T06:44:25.767Z,26.10
2022-12-11T06:46:53.980Z,20.10
2022-12-11T06:49:22.732Z,25.70
2022-12-11T06:51:50.911Z,22.90
2022-12-11T06:54:19.232Z,21.00
2022-12-11T06:56:47.575Z,25.50
2022-12-11T06:59:15.827Z,21.60
2022-12-11T07:01:53.633Z,29.00
2022-12-11T07:04:24.166Z,23.90
2022-12-11T07:06:52.729Z,23.80
2022-12-11T07:09:22.257Z,13.00
2022-12-11T07:11:50.930Z,22.30
2022-12-11T07:14:19.458Z,28.30
2022-12-11T07:16:47.758Z,20.50
2022-12-11T07:19:16.075Z,31.40
2022-12-11T07:21:44.518Z,27.20
2022-12-11T07:24:12.743Z,36.60
2022-12-11T07:26:40.975Z,22.30
2022-12-11T07:29:09.294Z,23.30
2022-12-11T07:31:37.547Z,24.10
2022-12-11T07:34:07.207Z,22.10
2022-12-11T07:36:35.475Z,25.90
2022-12-11T07:39:03.843Z,25.80
2022-12-11T07:41:32.070Z,18.10
2022-12-11T07:44:00.983Z,29.30
2022-12-11T07:46:31.147Z,18.80
2022-12-11T07:49:00.621Z,26.20
2022-12-11T07:51:30.939Z,29.20
2022-12-11T07:54:00.574Z,22.30
2022-12-11T07:56:29.744Z,13.40
2022-12-11T07:58:59.559Z,15.60
2022-12-11T08:01:29.413Z,18.00
2022-12-11T08:03:58.061Z,36.00
2022-12-11T08:06:27.638Z,29.70
2022-12-11T08:08:56.248Z,28.50
2022-12-11T08:11:24.899Z,39.30
2022-12-11T08:13:53.195Z,33.10
2022-12-11T08:16:21.579Z,42.10
2022-12-11T08:18:50.003Z,18.70
2022-12-11T08:21:19.950Z,37.10
2022-12-11T08:23:48.311Z,21.40
2022-12-11T08:26:18.310Z,42.80
2022-12-11T08:28:46.671Z,36.30
2022-12-11T08:31:16.818Z,23.60
2022-12-11T08:33:45.417Z,27.10
2022-12-11T08:36:16.197Z,31.30
2022-12-11T08:38:46.005Z,28.10
2022-12-11T08:41:15.400Z,16.70
2022-12-11T08:43:44.370Z,21.70
2022-12-11T08:46:13.079Z,30.90
2022-12-11T08:48:42.603Z,30.60
2022-12-11T08:51:14.292Z,19.40
2022-12-11T08:53:42.782Z,25.50
2022-12-11T08:56:12.776Z,35.80
2022-12-11T08:58:41.112Z,24.20
2022-12-11T09:01:11.666Z,17.10
2022-12-11T09:03:40.388Z,13.00
2022-12-11T09:06:13.276Z,9.00
2022-12-11T09:08:44.929Z,24.90
2022-12-11T09:11:18.775Z,23.40
2022-12-11T09:13:47.798Z,13.00
2022-12-11T09:16:17.853Z,16.60
2022-12-11T09:18:47.811Z,28.90
2022-12-11T09:21:18.074Z,13.60
2022-12-11T09:23:46.819Z,22.00
2022-12-11T09:26:17.067Z,22.80
2022-12-11T09:28:47.294Z,23.10
2022-12-11T09:31:17.984Z,30.60
2022-12-11T09:33:47.069Z,23.90
2022-12-11T09:36:15.320Z,24.60
2022-12-11T09:38:44.327Z,31.90
2022-12-11T09:41:29.987Z,31.40
2022-12-11T09:44:03.154Z,31.70
2022-12-11T09:46:34.282Z,10.40
2022-12-11T09:49:04.282Z,19.00
2022-12-11T09:51:39.469Z,21.30
2022-12-11T09:54:09.483Z,24.40
2022-12-11T09:56:45.539Z,17.10
2022-12-11T09:59:22.958Z,24.00
2022-12-11T10:01:54.435Z,32.00
2022-12-11T10:04:36.334Z,21.70
2022-12-11T10:07:11.637Z,20.20
2022-12-11T10:09:46.676Z,17.00
2022-12-11T10:12:26.108Z,15.40
2022-12-11T10:15:05.535Z,30.20
2022-12-11T10:17:34.903Z,24.10
2022-12-11T10:20:17.718Z,16.10
2022-12-11T10:22:46.334Z,29.30
2022-12-11T10:25:20.855Z,31.50
2022-12-11T10:27:50.340Z,28.80
2022-12-11T10:30:22.747Z,24.90
2022-12-11T10:32:58.166Z,14.70
2022-12-11T10:35:31.419Z,29.40
2022-12-11T10:38:11.943Z,25.60
2022-12-11T10:40:41.777Z,19.10
2022-12-11T10:43:10.463Z,16.40
2022-12-11T10:45:38.698Z,22.80
2022-12-11T10:48:11.233Z,20.90
2022-12-11T10:50:40.571Z,13.40
2022-12-11T10:53:20.962Z,14.10
2022-12-11T10:55:49.678Z,29.40
2022-12-11T10:58:19.478Z,9.40
2022-12-11T11:00:57.565Z,14.20
2022-12-11T11:03:27.233Z,16.30
2022-12-11T11:06:04.927Z,26.80
2022-12-11T11:08:40.790Z,13.10
2022-12-11T11:11:22.100Z,12.00
2022-12-11T11:13:50.324Z,27.40
2022-12-11T11:16:20.880Z,15.40
2022-12-11T11:18:54.489Z,14.70
2022-12-11T11:21:25.893Z,10.60
2022-12-11T11:23:54.795Z,23.00
2022-12-11T11:26:23.265Z,12.60
2022-12-11T11:28:53.240Z,10.10
2022-12-11T11:31:22.964Z,14.20
2022-12-11T11:33:56.029Z,18.40
2022-12-11T11:36:26.511Z,20.50
2022-12-11T11:39:16.953Z,19.20
2022-12-11T11:41:49.558Z,13.30
2022-12-11T11:44:22.132Z,28.20
2022-12-11T11:46:56.002Z,15.50
2022-12-11T11:49:32.045Z,18.90
2022-12-11T11:52:04.196Z,13.40
2022-12-11T11:54:34.875Z,15.70
2022-12-11T11:57:13.798Z,13.20
2022-12-11T11:59:44.641Z,11.80
2022-12-11T12:02:15.948Z,10.60
2022-12-11T12:04:45.087Z,14.00
2022-12-11T12:07:27.354Z,15.30
2022-12-11T12:09:59.702Z,16.70
2022-12-11T12:12:34.697Z,10.40
2022-12-11T12:15:27.846Z,7.50
2022-12-11T12:17:57.516Z,13.20
2022-12-11T12:20:33.285Z,17.80
2022-12-11T12:23:13.575Z,15.70
2022-12-11T12:25:45.413Z,19.20
2022-12-11T12:28:21.141Z,15.00
2022-12-11T12:30:59.905Z,20.50
2022-12-11T12:33:40.736Z,18.80
2022-12-11T12:36:17.245Z,18.10
2022-12-11T12:38:54.713Z,18.20
2022-12-11T12:41:28.110Z,12.00
2022-12-11T12:44:13.869Z,14.50
2022-12-11T12:46:53.109Z,20.80
2022-12-11T12:49:30.812Z,20.80
2022-12-11T12:51:59.883Z,18.00
2022-12-11T12:54:29.782Z,13.60
2022-12-11T12:56:59.137Z,17.00
2022-12-11T12:59:28.602Z,18.70
2022-12-11T13:01:58.629Z,17.50
2022-12-11T13:04:54.844Z,19.60
2022-12-11T13:07:27.890Z,29.90
2022-12-11T13:12:42.271Z,27.10
2022-12-11T13:15:32.651Z,30.70
2022-12-11T13:18:02.440Z,14.90
2022-12-11T13:20:32.110Z,19.30
2022-12-11T13:23:17.913Z,14.90
2022-12-11T13:25:52.188Z,22.40
2022-12-11T13:28:30.690Z,15.20
2022-12-11T13:31:05.632Z,18.50
2022-12-11T13:33:40.377Z,19.50
2022-12-11T13:36:32.410Z,8.30
2022-12-11T13:39:03.964Z,33.00
2022-12-11T13:41:34.857Z,18.90
2022-12-11T13:44:05.478Z,20.40
2022-12-11T13:46:36.777Z,13.10
2022-12-11T13:49:06.595Z,14.60
2022-12-11T13:51:37.376Z,17.50
2022-12-11T13:54:17.079Z,12.30
2022-12-11T13:56:57.567Z,12.70
2022-12-11T13:59:29.083Z,14.40
2022-12-11T14:02:00.298Z,17.70
2022-12-11T14:04:29.213Z,25.20
2022-12-11T14:06:57.875Z,15.30
2022-12-11T14:09:27.468Z,11.20
2022-12-11T14:11:58.994Z,12.70
2022-12-11T14:14:34.753Z,25.70
2022-12-11T14:17:03.650Z,15.20
2022-12-11T14:19:32.366Z,17.90
2022-12-11T14:22:02.150Z,17.40
2022-12-11T14:24:31.403Z,15.40
2022-12-11T14:26:59.933Z,13.90
2022-12-11T14:29:30.502Z,10.80
2022-12-11T14:32:01.323Z,18.20
2022-12-11T14:34:31.966Z,17.40
2022-12-11T14:37:04.185Z,21.50
2022-12-11T14:39:35.552Z,18.20
2022-12-11T14:42:06.813Z,8.70
2022-12-11T14:44:45.749Z,24.40
2022-12-11T14:47:16.663Z,14.10
2022-12-11T14:49:47.818Z,8.20
2022-12-11T14:52:19.509Z,17.80
2022-12-11T14:54:50.978Z,13.00
2022-12-11T14:57:21.470Z,11.20
2022-12-11T14:59:52.474Z,16.20
2022-12-11T15:02:27.214Z,24.60
2022-12-11T15:05:14.298Z,11.50
2022-12-11T15:07:44.401Z,14.30
2022-12-11T15:10:28.166Z,18.10
2022-12-11T15:12:59.419Z,8.50
2022-12-11T15:15:28.355Z,19.20
2022-12-11T15:17:57.090Z,22.30
2022-12-11T15:20:28.045Z,16.20
2022-12-11T15:22:58.625Z,24.20
2022-12-11T15:25:28.316Z,13.10
2022-12-11T15:27:59.109Z,21.80
2022-12-11T15:30:33.872Z,20.30
2022-12-11T15:33:19.258Z,15.70
2022-12-11T15:35:59.174Z,16.00
2022-12-11T15:38:40.153Z,19.00
2022-12-11T15:41:14.334Z,17.00
2022-12-11T15:43:42.997Z,20.50
2022-12-11T15:46:11.538Z,11.50
2022-12-11T15:48:39.905Z,17.20
2022-12-11T15:51:08.652Z,11.20
2022-12-11T15:53:37.305Z,17.80
2022-12-11T15:56:06.659Z,13.60
2022-12-11T15:58:36.032Z,22.60
2022-12-11T16:01:04.775Z,8.70
2022-12-11T16:03:33.072Z,16.00
2022-12-11T16:06:01.340Z,12.00
2022-12-11T16:08:30.170Z,14.40
2022-12-11T16:10:58.492Z,20.30
2022-12-11T16:13:26.865Z,25.00
2022-12-11T16:15:55.118Z,11.50
2022-12-11T16:18:24.136Z,10.90
2022-12-11T16:20:52.774Z,21.70
2022-12-11T16:23:21.615Z,16.40
2022-12-11T16:25:50.459Z,13.00
2022-12-11T16:28:20.778Z,10.20
2022-12-11T16:30:49.599Z,12.00
2022-12-11T16:33:18.057Z,22.20
2022-12-11T16:35:46.783Z,14.20
2022-12-11T16:38:16.021Z,16.00
2022-12-11T16:40:44.896Z,17.90
2022-12-11T16:43:13.335Z,7.70
2022-12-11T16:45:43.598Z,11.80
2022-12-11T16:48:11.806Z,20.50
2022-12-11T16:50:41.083Z,16.10
2022-12-11T16:53:09.729Z,22.10
2022-12-11T16:55:40.330Z,12.30
2022-12-11T16:58:08.939Z,19.50
2022-12-11T17:00:38.360Z,8.00
2022-12-11T17:03:06.660Z,15.70
2022-12-11T17:05:34.943Z,14.10
2022-12-11T17:08:03.934Z,8.90
2022-12-11T17:10:32.169Z,15.10
2022-12-11T17:13:00.479Z,7.50
2022-12-11T17:15:28.988Z,5.90
2022-12-11T17:17:57.219Z,10.00
2022-12-11T17:20:25.496Z,7.70
2022-12-11T17:22:54.361Z,13.00
2022-12-11T17:25:22.607Z,8.60
2022-12-11T17:27:51.443Z,11.50
2022-12-11T17:30:19.952Z,6.70
2022-12-11T17:32:48.622Z,18.50
2022-12-11T17:35:17.147Z,10.50
2022-12-11T17:37:45.708Z,9.90
2022-12-11T17:40:13.946Z,20.30
2022-12-11T17:42:43.407Z,9.50
2022-12-11T17:45:13.190Z,16.10
2022-12-11T17:47:42.073Z,15.90
2022-12-11T17:50:12.335Z,12.80
2022-12-11T17:52:44.313Z,20.40
2022-12-11T17:55:13.718Z,17.20
2022-12-11T17:57:42.407Z,10.60
2022-12-11T18:00:12.819Z,13.80
2022-12-11T18:02:40.993Z,18.10
2022-12-11T18:05:09.882Z,8.90
2022-12-11T18:07:38.655Z,16.10
2022-12-11T18:10:08.082Z,13.20
2022-12-11T18:12:36.941Z,7.40
2022-12-11T18:15:07.303Z,11.60
2022-12-11T18:17:35.548Z,7.30
2022-12-11T18:20:04.818Z,10.90
2022-12-11T18:22:33.168Z,8.20
2022-12-11T18:25:05.080Z,13.60
2022-12-11T18:27:38.653Z,21.20
2022-12-11T18:30:11.903Z,18.20
2022-12-11T18:32:40.256Z,11.70
2022-12-11T18:35:09.570Z,8.40
2022-12-11T18:37:38.367Z,20.80
2022-12-11T18:40:09.438Z,12.60
2022-12-11T18:42:37.766Z,28.70
2022-12-11T18:45:07.928Z,12.10
2022-12-11T18:47:37.139Z,14.80
2022-12-11T18:50:08.211Z,18.40
2022-12-11T18:52:36.795Z,7.40
2022-12-11T18:55:06.508Z,10.40
2022-12-11T18:57:34.788Z,22.70
2022-12-11T19:00:06.812Z,13.60
2022-12-11T19:02:35.537Z,17.30
2022-12-11T19:05:04.986Z,15.50
2022-12-11T19:07:33.312Z,15.80
2022-12-11T19:10:01.599Z,22.60
2022-12-11T19:12:29.944Z,13.00
2022-12-11T19:14:58.174Z,23.80
2022-12-11T19:17:26.555Z,15.70
2022-12-11T19:19:54.813Z,7.30
2022-12-11T19:22:23.100Z,17.70
2022-12-11T19:24:51.765Z,14.70
2022-12-11T19:27:20.265Z,13.30
2022-12-11T19:29:48.657Z,15.10
2022-12-11T19:32:17.217Z,14.70
2022-12-11T19:34:45.479Z,18.30
2022-12-11T19:37:13.920Z,14.60
2022-12-11T19:39:42.273Z,15.30
2022-12-11T19:42:10.794Z,16.10
2022-12-11T19:44:39.039Z,18.10
2022-12-11T19:47:07.355Z,15.30
2022-12-11T19:49:35.658Z,10.70
2022-12-11T19:52:04.259Z,8.10
2022-12-11T19:54:32.528Z,27.00
2022-12-11T19:57:00.788Z,12.00
2022-12-11T19:59:29.003Z,13.60
2022-12-11T20:01:57.344Z,16.10
2022-12-11T20:04:25.662Z,17.20
2022-12-11T20:06:54.006Z,9.90
2022-12-11T20:09:23.646Z,14.90
2022-12-11T20:11:52.777Z,11.70
2022-12-11T20:14:26.052Z,10.90
2022-12-11T20:17:14.481Z,11.20
2022-12-11T20:19:43.885Z,9.90
2022-12-11T20:22:12.882Z,14.60
2022-12-11T20:24:41.365Z,12.30
2022-12-11T20:27:11.863Z,15.90
2022-12-11T20:29:40.432Z,12.80
2022-12-11T20:32:10.586Z,11.10
2022-12-11T20:34:38.989Z,16.70
2022-12-11T20:37:07.672Z,9.70
2022-12-11T20:39:36.780Z,16.50
2022-12-11T20:42:12.095Z,18.80
2022-12-11T20:44:48.711Z,14.80
2022-12-11T20:47:22.178Z,17.80
2022-12-11T20:49:50.984Z,21.30
2022-12-11T20:52:19.624Z,7.60
2022-12-11T20:54:47.948Z,10.70
2022-12-11T20:57:16.491Z,16.40
2022-12-11T20:59:45.409Z,12.10
2022-12-11T21:02:13.799Z,11.40
2022-12-11T21:04:42.203Z,7.80
2022-12-11T21:07:10.947Z,10.30
2022-12-11T21:09:39.839Z,15.20
2022-12-11T21:12:08.594Z,6.60
2022-12-11T21:14:38.188Z,14.50
2022-12-11T21:17:06.588Z,10.80
2022-12-11T21:19:35.079Z,15.30
2022-12-11T21:22:05.230Z,6.90
2022-12-11T21:24:34.451Z,10.50
2022-12-11T21:27:02.850Z,5.10
2022-12-11T21:29:31.226Z,15.80
2022-12-11T21:31:59.595Z,7.50
2022-12-11T21:34:28.053Z,14.30
2022-12-11T21:36:58.629Z,12.50
2022-12-11T21:39:28.058Z,12.70
2022-12-11T21:41:57.479Z,8.90
2022-12-11T21:45:31.422Z,11.70
2022-12-11T21:47:14.255Z,8.30
2022-12-11T21:49:45.058Z,16.50
2022-12-11T21:52:13.529Z,15.10
2022-12-11T21:54:43.017Z,8.70
2022-12-11T21:57:11.236Z,16.30
2022-12-11T21:59:39.481Z,16.70
2022-12-11T22:02:10.176Z,8.70
2022-12-11T22:04:38.740Z,14.50
2022-12-11T22:07:07.047Z,6.10
2022-12-11T22:09:35.651Z,20.20
2022-12-11T22:12:04.540Z,15.80
2022-12-11T22:14:34.487Z,9.90
2022-12-11T22:17:02.992Z,8.30
2022-12-11T22:19:32.834Z,11.00
2022-12-11T22:22:01.485Z,17.10
2022-12-11T22:24:29.807Z,15.50
2022-12-11T22:26:58.895Z,20.30
2022-12-11T22:29:27.176Z,19.60
2022-12-11T22:31:55.773Z,27.70
2022-12-11T22:34:24.091Z,15.60
2022-12-11T22:36:52.498Z,24.50
2022-12-11T22:39:20.763Z,23.60
2022-12-11T22:41:49.003Z,16.00
2022-12-11T22:44:19.804Z,21.70
2022-12-11T22:46:50.256Z,17.40
2022-12-11T22:49:19.282Z,17.90
2022-12-11T22:51:48.705Z,15.70
2022-12-11T22:54:17.110Z,15.90
2022-12-11T22:56:45.483Z,19.60
2022-12-11T22:59:13.849Z,21.80
2022-12-11T23:01:42.074Z,20.30
2022-12-11T23:04:10.227Z,15.40
2022-12-11T23:06:38.471Z,20.00
2022-12-11T23:09:06.880Z,10.20
2022-12-11T23:11:37.103Z,13.00
2022-12-11T23:14:08.006Z,9.80
2022-12-11T23:16:36.630Z,17.10
2022-12-11T23:19:05.202Z,7.30
2022-12-11T23:21:33.676Z,25.80
2022-12-11T23:24:03.493Z,13.50
2022-12-11T23:26:32.421Z,22.70
2022-12-11T23:29:00.878Z,20.40
2022-12-11T23:31:29.795Z,10.90
2022-12-11T23:33:58.166Z,9.90
2022-12-11T23:36:27.672Z,17.80
2022-12-11T23:38:56.001Z,22.10
2022-12-11T23:41:24.542Z,26.50
2022-12-11T23:43:52.888Z,19.00
2022-12-11T23:46:23.035Z,20.10
2022-12-11T23:48:51.972Z,9.50
2022-12-11T23:51:21.465Z,18.80
2022-12-11T23:53:49.915Z,10.20
2022-12-11T23:56:19.726Z,23.70
2022-12-11T23:58:48.159Z,19.80
